createdAt,value
2018-08-07T00:00:31.149Z,8.20
2018-08-07T00:01:31.121Z,5.50
2018-08-07T00:02:31.099Z,5.50
2018-08-07T00:03:31.076Z,12.40
2018-08-07T00:04:31.055Z,6.80
2018-08-07T00:05:31.046Z,7.30
2018-08-07T00:06:31.012Z,5.60
2018-08-07T00:07:30.988Z,10.20
2018-08-07T00:08:30.966Z,10.20
2018-08-07T00:09:30.944Z,9.30
2018-08-07T00:10:30.929Z,7.00
2018-08-07T00:11:30.899Z,6.40
2018-08-07T00:12:30.878Z,6.10
2018-08-07T00:13:30.854Z,7.70
2018-08-07T00:14:30.834Z,6.40
2018-08-07T00:15:30.811Z,6.10
2018-08-07T00:17:55.296Z,8.90
2018-08-07T00:18:55.075Z,6.80
2018-08-07T00:19:55.050Z,5.20
2018-08-07T00:20:55.031Z,9.70
2018-08-07T00:21:55.005Z,5.30
2018-08-07T00:22:54.986Z,6.20
2018-08-07T00:23:54.962Z,9.40
2018-08-07T00:24:54.939Z,8.80
2018-08-07T00:25:54.917Z,9.80
2018-08-07T00:26:54.893Z,6.40
2018-08-07T00:27:54.887Z,4.90
2018-08-07T00:28:54.855Z,5.80
2018-08-07T00:29:54.827Z,7.50
2018-08-07T00:30:54.804Z,4.80
2018-08-07T00:31:54.783Z,7.40
2018-08-07T00:32:54.760Z,5.70
2018-08-07T00:33:54.738Z,5.90
2018-08-07T00:34:54.715Z,4.80
2018-08-07T00:35:54.692Z,5.20
2018-08-07T00:36:54.671Z,5.40
2018-08-07T00:37:54.707Z,7.50
2018-08-07T00:38:54.626Z,6.10
2018-08-07T00:39:54.604Z,6.50
2018-08-07T00:40:54.582Z,7.80
2018-08-07T00:41:54.560Z,4.80
2018-08-07T00:42:54.539Z,5.30
2018-08-07T00:43:54.513Z,4.40
2018-08-07T00:44:54.492Z,4.80
2018-08-07T00:45:54.474Z,4.90
2018-08-07T00:46:54.451Z,7.50
2018-08-07T00:47:54.425Z,7.40
2018-08-07T00:48:54.402Z,6.10
2018-08-07T00:49:54.380Z,6.60
2018-08-07T00:50:54.358Z,6.20
2018-08-07T00:51:54.335Z,7.80
2018-08-07T00:53:36.670Z,5.20
2018-08-07T00:54:36.647Z,4.30
2018-08-07T00:55:36.432Z,6.20
2018-08-07T00:56:36.399Z,9.50
2018-08-07T00:57:36.376Z,6.70
2018-08-07T00:58:36.353Z,7.40
2018-08-07T00:59:36.332Z,9.60
2018-08-07T01:00:36.312Z,7.50
2018-08-07T01:01:36.288Z,8.30
2018-08-07T01:02:36.264Z,6.50
2018-08-07T01:03:36.240Z,6.10
2018-08-07T01:04:36.220Z,7.30
2018-08-07T01:05:36.346Z,6.00
2018-08-07T01:06:36.173Z,5.20
2018-08-07T01:07:36.354Z,6.80
2018-08-07T01:08:36.130Z,9.30
2018-08-07T01:09:36.324Z,6.50
2018-08-07T01:10:36.085Z,4.90
2018-08-07T01:11:36.062Z,5.60
2018-08-07T01:12:36.243Z,5.10
2018-08-07T01:13:36.018Z,6.50
2018-08-07T01:14:35.995Z,8.00
2018-08-07T01:15:36.175Z,6.40
2018-08-07T01:16:35.949Z,6.40
2018-08-07T01:17:35.928Z,4.70
2018-08-07T01:18:35.905Z,6.10
2018-08-07T01:19:35.886Z,5.30
2018-08-07T01:20:35.868Z,6.00
2018-08-07T01:21:36.043Z,8.10
2018-08-07T01:22:35.815Z,5.30
2018-08-07T01:23:35.793Z,6.60
2018-08-07T01:24:35.972Z,5.60
2018-08-07T01:25:35.749Z,6.90
2018-08-07T01:26:35.928Z,6.20
2018-08-07T01:27:35.904Z,7.80
2018-08-07T01:28:35.681Z,5.60
2018-08-07T01:29:35.862Z,5.90
2018-08-07T01:30:35.643Z,7.70
2018-08-07T01:31:35.613Z,5.90
2018-08-07T01:32:35.590Z,5.40
2018-08-07T01:33:35.569Z,6.00
2018-08-07T01:34:35.545Z,6.50
2018-08-07T01:38:00.013Z,8.10
2018-08-07T01:39:02.757Z,8.60
2018-08-07T01:40:42.117Z,5.00
2018-08-07T01:41:41.891Z,7.00
2018-08-07T01:42:42.070Z,6.90
2018-08-07T01:43:42.052Z,7.10
2018-08-07T01:44:41.830Z,7.80
2018-08-07T01:45:41.802Z,6.10
2018-08-07T01:46:41.778Z,6.40
2018-08-07T01:47:41.756Z,6.10
2018-08-07T01:48:41.734Z,10.30
2018-08-07T01:49:41.710Z,6.30
2018-08-07T01:50:41.693Z,7.20
2018-08-07T01:51:41.666Z,7.20
2018-08-07T01:52:41.646Z,9.00
2018-08-07T01:53:41.619Z,6.90
2018-08-07T01:54:41.598Z,7.50
2018-08-07T01:55:41.576Z,4.30
2018-08-07T01:56:41.553Z,4.80
2018-08-07T01:57:41.530Z,4.60
2018-08-07T01:58:41.506Z,8.80
2018-08-07T01:59:41.485Z,7.00
2018-08-07T02:00:41.665Z,5.00
2018-08-07T02:01:41.439Z,8.80
2018-08-07T02:02:41.417Z,6.90
2018-08-07T02:03:41.395Z,6.80
2018-08-07T02:04:41.372Z,6.00
2018-08-07T02:05:41.349Z,10.70
2018-08-07T02:06:41.325Z,9.80
2018-08-07T02:07:41.304Z,5.00
2018-08-07T02:08:41.281Z,7.30
2018-08-07T02:09:41.258Z,8.70
2018-08-07T02:10:41.236Z,6.70
2018-08-07T02:11:41.415Z,6.50
2018-08-07T02:12:44.014Z,6.90
2018-08-07T02:13:41.168Z,8.10
2018-08-07T02:14:41.347Z,6.00
2018-08-07T02:15:41.327Z,9.30
2018-08-07T02:16:41.099Z,6.00
2018-08-07T02:17:41.076Z,5.90
2018-08-07T02:18:41.054Z,7.30
2018-08-07T02:19:41.031Z,6.90
2018-08-07T02:20:41.009Z,6.10
2018-08-07T02:21:40.985Z,7.80
2018-08-07T02:22:40.963Z,9.10
2018-08-07T02:23:40.940Z,12.90
2018-08-07T02:24:40.925Z,14.40
2018-08-07T02:25:40.894Z,10.60
2018-08-07T02:26:40.873Z,8.60
2018-08-07T02:27:40.861Z,6.40
2018-08-07T02:28:40.831Z,6.00
2018-08-07T02:29:40.803Z,8.70
2018-08-07T02:30:40.780Z,7.10
2018-08-07T02:31:40.764Z,9.20
2018-08-07T02:32:40.737Z,6.00
2018-08-07T02:33:40.712Z,8.20
2018-08-07T02:34:40.693Z,5.10
2018-08-07T02:35:40.667Z,5.70
2018-08-07T02:36:40.651Z,4.90
2018-08-07T02:37:40.622Z,5.80
2018-08-07T02:38:40.598Z,5.60
2018-08-07T02:39:40.576Z,9.60
2018-08-07T02:40:40.553Z,6.80
2018-08-07T02:41:40.530Z,9.70
2018-08-07T02:42:40.507Z,8.60
2018-08-07T02:43:40.484Z,6.00
2018-08-07T02:44:40.664Z,6.20
2018-08-07T02:45:40.641Z,8.30
2018-08-07T02:46:40.415Z,6.80
2018-08-07T02:47:40.597Z,8.60
2018-08-07T02:48:40.370Z,7.40
2018-08-07T02:49:40.351Z,8.30
2018-08-07T02:50:40.327Z,6.40
2018-08-07T02:51:40.304Z,10.10
2018-08-07T02:52:40.281Z,11.30
2018-08-07T02:53:40.255Z,5.90
2018-08-07T02:54:40.233Z,7.40
2018-08-07T02:55:40.222Z,4.80
2018-08-07T02:56:40.188Z,6.50
2018-08-07T02:57:40.164Z,6.10
2018-08-07T02:58:40.142Z,6.40
2018-08-07T02:59:40.124Z,6.50
2018-08-07T03:00:40.101Z,7.20
2018-08-07T03:01:40.075Z,7.40
2018-08-07T03:02:40.051Z,6.20
2018-08-07T03:03:40.230Z,7.00
2018-08-07T03:05:40.184Z,6.20
2018-08-07T03:06:40.164Z,6.10
2018-08-07T03:07:40.145Z,9.00
2018-08-07T03:08:40.119Z,4.50
2018-08-07T03:09:40.093Z,6.20
2018-08-07T03:10:40.068Z,4.60
2018-08-07T03:11:39.858Z,7.00
2018-08-07T03:12:39.821Z,9.60
2018-08-07T03:13:39.802Z,7.10
2018-08-07T03:14:39.978Z,7.60
2018-08-07T03:15:39.954Z,8.00
2018-08-07T03:16:39.933Z,7.20
2018-08-07T03:17:39.707Z,6.20
2018-08-07T03:18:39.683Z,6.80
2018-08-07T03:19:39.662Z,9.70
2018-08-07T03:20:39.841Z,5.40
2018-08-07T03:21:39.613Z,8.40
2018-08-07T03:22:39.600Z,6.60
2018-08-07T03:23:39.568Z,8.90
2018-08-07T03:24:39.545Z,7.80
2018-08-07T03:25:39.521Z,11.10
2018-08-07T03:26:39.497Z,7.50
2018-08-07T03:27:39.475Z,9.00
2018-08-07T03:28:39.454Z,5.30
2018-08-07T03:29:39.429Z,8.20
2018-08-07T03:30:39.406Z,6.20
2018-08-07T03:31:39.383Z,7.40
2018-08-07T03:32:39.363Z,8.50
2018-08-07T03:33:39.538Z,12.40
2018-08-07T03:34:39.324Z,6.20
2018-08-07T03:35:39.493Z,7.80
2018-08-07T03:36:39.470Z,9.60
2018-08-07T03:37:39.448Z,6.50
2018-08-07T03:38:42.045Z,8.00
2018-08-07T03:39:39.403Z,9.40
2018-08-07T03:40:39.176Z,10.90
2018-08-07T03:41:39.154Z,5.10
2018-08-07T03:42:39.127Z,5.10
2018-08-07T03:43:39.105Z,7.30
2018-08-07T03:44:39.083Z,9.20
2018-08-07T03:45:39.059Z,11.20
2018-08-07T03:46:39.240Z,8.60
2018-08-07T03:47:39.013Z,9.30
2018-08-07T03:48:38.990Z,10.00
2018-08-07T03:49:38.969Z,7.70
2018-08-07T03:50:38.943Z,5.30
2018-08-07T03:51:38.919Z,9.30
2018-08-07T03:52:38.897Z,11.10
2018-08-07T03:53:38.876Z,6.70
2018-08-07T03:54:38.853Z,6.50
2018-08-07T03:55:38.827Z,6.70
2018-08-07T03:56:38.807Z,10.40
2018-08-07T03:57:38.780Z,7.20
2018-08-07T03:58:38.759Z,7.50
2018-08-07T03:59:38.736Z,6.60
2018-08-07T04:00:38.711Z,8.90
2018-08-07T04:01:38.897Z,8.30
2018-08-07T04:02:38.664Z,9.00
2018-08-07T04:03:38.844Z,10.30
2018-08-07T04:04:38.617Z,13.40
2018-08-07T04:05:38.596Z,11.70
2018-08-07T04:06:38.774Z,14.50
2018-08-07T04:07:38.552Z,11.00
2018-08-07T04:08:38.538Z,13.50
2018-08-07T04:09:38.509Z,15.00
2018-08-07T04:10:38.478Z,10.40
2018-08-07T04:11:38.521Z,19.20
2018-08-07T04:12:38.432Z,12.60
2018-08-07T04:13:38.410Z,13.50
2018-08-07T04:14:38.593Z,17.10
2018-08-07T04:15:38.369Z,14.20
2018-08-07T04:16:38.341Z,11.60
2018-08-07T04:17:38.466Z,12.00
2018-08-07T04:18:38.295Z,10.00
2018-08-07T04:19:38.279Z,8.30
2018-08-07T04:20:38.249Z,9.30
2018-08-07T04:21:38.227Z,9.60
2018-08-07T04:22:38.203Z,8.00
2018-08-07T04:23:38.185Z,13.80
2018-08-07T04:24:38.163Z,15.10
2018-08-07T04:25:38.134Z,10.00
2018-08-07T04:26:38.116Z,9.90
2018-08-07T04:27:38.090Z,13.40
2018-08-07T04:28:38.068Z,8.40
2018-08-07T04:29:38.048Z,13.30
2018-08-07T04:30:38.022Z,13.00
2018-08-07T04:31:37.999Z,11.40
2018-08-07T04:32:37.979Z,8.70
2018-08-07T04:33:37.954Z,8.70
2018-08-07T04:34:37.936Z,9.00
2018-08-07T04:35:38.113Z,10.00
2018-08-07T04:36:37.890Z,9.70
2018-08-07T04:37:37.871Z,7.40
2018-08-07T04:38:37.848Z,8.10
2018-08-07T04:39:37.821Z,7.20
2018-08-07T04:40:37.805Z,8.70
2018-08-07T04:41:37.777Z,13.00
2018-08-07T04:42:37.758Z,16.60
2018-08-07T04:43:37.735Z,20.60
2018-08-07T04:44:37.746Z,10.30
2018-08-07T04:45:37.688Z,12.20
2018-08-07T04:46:37.669Z,11.70
2018-08-07T04:47:37.646Z,9.00
2018-08-07T04:48:37.626Z,11.80
2018-08-07T04:49:37.601Z,12.70
2018-08-07T04:50:37.578Z,15.20
2018-08-07T04:51:37.558Z,13.90
2018-08-07T04:52:37.839Z,13.30
2018-08-07T04:53:37.513Z,14.20
2018-08-07T04:54:37.494Z,18.20
2018-08-07T04:55:37.472Z,10.90
2018-08-07T04:56:37.449Z,18.40
2018-08-07T04:57:38.037Z,21.70
2018-08-07T04:58:37.860Z,13.90
2018-08-07T04:59:37.386Z,18.20
2018-08-07T05:00:37.567Z,13.50
2018-08-07T05:01:38.151Z,15.70
2018-08-07T05:02:37.523Z,14.50
2018-08-07T05:03:37.300Z,14.20
2018-08-07T05:04:37.481Z,22.60
2018-08-07T05:05:37.459Z,16.10
2018-08-07T05:06:37.441Z,10.50
2018-08-07T05:07:37.216Z,13.10
2018-08-07T05:08:37.194Z,9.70
2018-08-07T05:09:37.178Z,9.50
2018-08-07T05:10:37.359Z,8.80
2018-08-07T05:11:37.130Z,12.30
2018-08-07T05:12:37.108Z,16.50
2018-08-07T05:13:37.293Z,19.00
2018-08-07T05:14:37.271Z,15.50
2018-08-07T05:15:37.249Z,18.90
2018-08-07T05:16:37.229Z,11.10
2018-08-07T05:17:37.207Z,9.60
2018-08-07T05:18:36.984Z,9.30
2018-08-07T05:19:37.167Z,18.20
2018-08-07T05:20:36.944Z,13.10
2018-08-07T05:21:36.921Z,10.80
2018-08-07T05:22:36.940Z,9.20
2018-08-07T05:23:37.083Z,22.30
2018-08-07T05:24:36.860Z,17.00
2018-08-07T05:25:36.837Z,14.20
2018-08-07T05:26:36.819Z,14.00
2018-08-07T05:27:36.800Z,12.40
2018-08-07T05:28:36.791Z,14.40
2018-08-07T05:29:36.758Z,15.40
2018-08-07T05:30:36.746Z,12.70
2018-08-07T05:31:36.719Z,8.60
2018-08-07T05:32:36.701Z,11.20
2018-08-07T05:33:36.977Z,14.10
2018-08-07T05:34:36.657Z,15.20
2018-08-07T05:35:36.637Z,45.00
2018-08-07T05:36:36.618Z,23.70
2018-08-07T05:37:36.598Z,15.20
2018-08-07T05:38:36.577Z,23.30
2018-08-07T05:39:36.761Z,14.40
2018-08-07T05:40:36.594Z,21.50
2018-08-07T05:41:36.518Z,17.00
2018-08-07T05:42:36.510Z,16.20
2018-08-07T05:43:36.681Z,15.40
2018-08-07T05:44:36.459Z,15.10
2018-08-07T05:45:36.439Z,18.10
2018-08-07T05:46:36.423Z,17.70
2018-08-07T05:47:36.401Z,17.40
2018-08-07T05:48:36.382Z,28.40
2018-08-07T05:49:36.361Z,20.40
2018-08-07T05:50:36.497Z,17.60
2018-08-07T06:33:46.121Z,16.10
2018-08-07T06:34:45.598Z,20.50
2018-08-07T06:36:28.341Z,18.30
2018-08-07T06:37:27.919Z,16.50
2018-08-07T06:38:30.523Z,24.40
2018-08-07T06:39:27.680Z,23.90
2018-08-07T06:40:27.682Z,15.00
2018-08-07T06:41:27.644Z,13.00
2018-08-07T06:42:27.627Z,17.10
2018-08-07T06:43:27.610Z,17.70
2018-08-07T06:44:27.593Z,17.40
2018-08-07T06:45:27.575Z,12.30
2018-08-07T06:46:27.556Z,10.00
2018-08-07T06:47:27.544Z,14.70
2018-08-07T06:48:27.732Z,14.40
2018-08-07T06:49:27.708Z,13.70
2018-08-07T06:50:27.496Z,7.70
2018-08-07T06:51:27.473Z,12.50
2018-08-07T06:52:27.658Z,10.30
2018-08-07T06:53:27.439Z,12.60
2018-08-07T06:54:27.625Z,10.20
2018-08-07T06:55:27.611Z,7.20
2018-08-07T06:56:27.391Z,13.30
2018-08-07T06:57:27.373Z,11.70
2018-08-07T06:58:27.357Z,9.90
2018-08-07T06:59:27.344Z,16.10
2018-08-07T07:00:27.325Z,11.90
2018-08-07T07:01:27.308Z,11.70
2018-08-07T07:02:27.295Z,13.30
2018-08-07T07:03:27.276Z,11.80
2018-08-07T07:04:27.462Z,10.50
2018-08-07T07:05:27.446Z,17.60
2018-08-07T07:06:27.228Z,14.30
2018-08-07T07:07:27.212Z,11.00
2018-08-07T07:08:27.199Z,13.80
2018-08-07T07:09:27.189Z,13.00
2018-08-07T07:10:27.164Z,11.50
2018-08-07T07:11:27.352Z,12.20
2018-08-07T07:12:27.133Z,13.90
2018-08-07T07:13:27.118Z,15.90
2018-08-07T07:14:27.103Z,15.40
2018-08-07T07:15:27.288Z,9.90
2018-08-07T07:18:33.750Z,12.50
2018-08-07T07:19:33.533Z,12.60
2018-08-07T07:20:33.822Z,10.00
2018-08-07T07:21:33.503Z,12.60
2018-08-07T07:22:33.687Z,12.00
2018-08-07T07:23:33.469Z,7.20
2018-08-07T07:24:33.657Z,11.00
2018-08-07T07:25:33.441Z,18.30
2018-08-07T07:26:33.662Z,23.10
2018-08-07T07:27:33.612Z,12.20
2018-08-07T07:28:33.597Z,11.90
2018-08-07T07:29:36.406Z,15.00
2018-08-07T07:30:33.574Z,16.90
2018-08-07T07:31:33.552Z,10.90
2018-08-07T07:34:40.079Z,14.70
2018-08-07T07:35:39.798Z,13.40
2018-08-07T07:36:39.783Z,12.30
2018-08-07T07:37:39.973Z,10.70
2018-08-07T07:38:39.755Z,12.40
2018-08-07T07:39:39.739Z,7.70
2018-08-07T07:40:39.749Z,6.40
2018-08-07T07:41:39.914Z,9.00
2018-08-07T07:42:39.898Z,14.30
2018-08-07T07:43:39.894Z,11.00
2018-08-07T07:44:39.868Z,11.10
2018-08-07T07:45:39.656Z,17.30
2018-08-07T07:46:39.910Z,11.90
2018-08-07T07:49:46.310Z,15.80
2018-08-07T07:56:23.565Z,11.20
2018-08-07T07:57:23.348Z,9.80
2018-08-07T07:58:23.334Z,8.90
2018-08-07T07:59:23.325Z,8.40
2018-08-07T08:00:23.345Z,11.70
2018-08-07T08:01:23.498Z,14.70
2018-08-07T08:03:05.640Z,14.50
2018-08-07T08:15:20.196Z,17.00
2018-08-07T08:16:19.966Z,14.00
2018-08-07T08:17:20.156Z,10.50
2018-08-07T08:18:20.140Z,13.50
2018-08-07T08:19:19.925Z,14.70
2018-08-07T08:21:05.197Z,8.20
2018-08-07T08:22:02.259Z,9.20
2018-08-07T08:23:02.246Z,6.10
2018-08-07T08:26:50.874Z,12.50
2018-08-07T08:27:50.868Z,13.80
2018-08-07T08:28:50.645Z,12.90
2018-08-07T08:31:15.159Z,30.80
2018-08-07T08:32:57.304Z,12.60
2018-08-07T08:33:57.291Z,18.50
2018-08-07T08:35:43.153Z,9.10
2018-08-07T08:36:39.433Z,11.70
2018-08-07T08:37:39.819Z,10.20
2018-08-07T08:38:39.200Z,10.50
2018-08-07T08:39:39.390Z,15.40
2018-08-07T08:40:39.174Z,12.20
2018-08-07T08:41:41.987Z,14.10
2018-08-07T08:42:39.354Z,13.50
2018-08-07T08:43:42.165Z,15.30
2018-08-07T08:45:21.489Z,13.10
2018-08-07T08:46:21.478Z,12.70
2018-08-07T08:48:03.686Z,7.30
2018-08-07T08:49:03.413Z,4.60
2018-08-07T08:50:07.439Z,11.80
2018-08-07T08:51:03.600Z,9.00
2018-08-07T08:52:06.402Z,11.10
2018-08-07T08:53:03.365Z,9.30
2018-08-07T08:54:03.559Z,11.90
2018-08-07T08:55:03.642Z,15.80
2018-08-07T08:56:03.335Z,7.70
2018-08-07T08:57:03.319Z,12.00
2018-08-07T08:58:03.308Z,12.30
2018-08-07T08:59:03.500Z,12.90
2018-08-07T09:00:07.016Z,11.60
2018-08-07T09:01:03.476Z,9.40
2018-08-07T09:02:03.262Z,10.50
2018-08-07T09:03:03.454Z,16.00
2018-08-07T09:04:03.443Z,13.30
2018-08-07T09:05:03.486Z,11.20
2018-08-07T09:06:03.420Z,8.70
2018-08-07T09:07:03.207Z,15.50
2018-08-07T09:08:03.399Z,12.00
2018-08-07T09:09:03.386Z,18.70
2018-08-07T09:10:03.174Z,22.10
2018-08-07T09:11:03.169Z,13.10
2018-08-07T09:12:03.154Z,21.00
2018-08-07T09:13:03.344Z,15.80
2018-08-07T09:14:03.133Z,10.40
2018-08-07T09:15:03.327Z,15.10
2018-08-07T09:16:03.313Z,10.10
2018-08-07T09:17:03.305Z,15.00
2018-08-07T09:18:03.113Z,17.60
2018-08-07T09:19:03.282Z,14.30
2018-08-07T09:20:03.075Z,15.10
2018-08-07T09:21:03.261Z,11.30
2018-08-07T09:22:03.047Z,7.40
2018-08-07T09:23:03.049Z,6.30
2018-08-07T09:24:03.030Z,10.90
2018-08-07T09:25:03.019Z,11.00
2018-08-07T09:26:45.371Z,24.20
2018-08-07T09:27:45.159Z,8.70
2018-08-07T09:28:45.152Z,18.90
2018-08-07T09:29:45.148Z,12.90
2018-08-07T09:30:45.128Z,27.80
2018-08-07T09:31:45.130Z,15.50
2018-08-07T09:32:45.310Z,7.80
2018-08-07T09:33:45.299Z,6.00
2018-08-07T09:34:45.293Z,7.30
2018-08-07T09:35:45.084Z,9.10
2018-08-07T09:36:45.269Z,9.20
2018-08-07T09:39:09.585Z,8.30
2018-08-07T09:40:09.670Z,11.80
2018-08-07T09:41:09.364Z,10.80
2018-08-07T10:52:25.792Z,5.60
2018-08-07T10:53:25.781Z,5.60
2018-08-07T10:55:07.935Z,5.90
2018-08-07T10:56:07.925Z,6.50
2018-08-07T10:57:07.915Z,4.30
2018-08-07T11:17:06.341Z,3.90
2018-08-07T11:21:37.146Z,5.80
2018-08-07T11:24:01.467Z,3.50
2018-08-07T11:25:43.623Z,6.10
2018-08-07T11:26:46.238Z,7.60
2018-08-07T11:27:43.606Z,4.10
2018-08-07T11:28:43.600Z,7.40
2018-08-07T11:33:14.421Z,7.00
2018-08-07T11:34:14.212Z,6.90
2018-08-07T11:35:14.407Z,4.70
2018-08-07T11:36:14.404Z,6.50
2018-08-07T11:37:14.188Z,11.00
2018-08-07T11:38:14.185Z,7.30
2018-08-07T11:39:14.380Z,4.90
2018-08-07T11:40:14.368Z,4.20
2018-08-07T11:41:14.374Z,8.00
2018-08-07T11:42:14.352Z,4.90
2018-08-07T11:43:14.346Z,5.00
2018-08-07T11:44:14.133Z,9.40
2018-08-07T11:45:14.125Z,3.70
2018-08-07T11:46:14.117Z,8.30
2018-08-07T11:47:14.311Z,9.90
2018-08-07T11:49:58.212Z,11.70
2018-08-07T11:50:38.634Z,11.30
2018-08-07T11:51:38.418Z,10.50
2018-08-07T11:52:38.414Z,9.40
2018-08-07T11:53:38.607Z,4.50
2018-08-07T11:54:38.600Z,8.60
2018-08-07T11:55:38.391Z,6.70
2018-08-07T11:58:02.921Z,3.80
2018-08-07T12:13:48.403Z,6.80
2018-08-07T12:14:48.388Z,6.80
2018-08-07T12:15:51.001Z,7.50
2018-08-07T12:21:01.370Z,6.50
2018-08-07T12:22:01.164Z,5.30
2018-08-07T12:25:07.855Z,5.50
2018-08-07T12:38:50.412Z,6.50
2018-08-07T12:39:46.619Z,6.30
2018-08-07T12:40:46.611Z,3.90
2018-08-07T12:41:46.813Z,4.00
2018-08-07T12:43:28.966Z,7.10
2018-08-07T12:44:28.757Z,6.30
2018-08-07T12:45:28.961Z,7.00
2018-08-07T12:46:28.801Z,4.00
2018-08-07T12:47:28.736Z,5.60
2018-08-07T12:48:28.732Z,8.60
2018-08-07T12:49:28.723Z,3.00
2018-08-07T12:50:28.719Z,6.90
2018-08-07T12:51:28.714Z,4.80
2018-08-07T12:52:28.704Z,4.30
2018-08-07T12:53:28.700Z,5.30
2018-08-07T12:54:28.690Z,8.30
2018-08-07T12:55:28.684Z,8.80
2018-08-07T12:56:28.679Z,4.80
2018-08-07T12:57:28.676Z,9.00
2018-08-07T12:58:28.665Z,6.80
2018-08-07T12:59:28.654Z,8.70
2018-08-07T13:00:28.650Z,8.90
2018-08-07T13:01:28.640Z,5.20
2018-08-07T13:02:28.933Z,7.60
2018-08-07T13:03:28.624Z,11.60
2018-08-07T13:04:28.625Z,6.10
2018-08-07T13:05:28.612Z,5.50
2018-08-07T13:06:28.626Z,4.00
2018-08-07T13:07:28.595Z,4.00
2018-08-07T13:08:29.440Z,7.50
2018-08-07T13:09:28.582Z,9.10
2018-08-07T13:10:28.573Z,9.00
2018-08-07T13:11:28.566Z,11.30
2018-08-07T13:12:28.557Z,7.40
2018-08-07T13:13:28.551Z,13.60
2018-08-07T13:14:28.543Z,21.50
2018-08-07T13:15:28.544Z,15.60
2018-08-07T13:16:28.527Z,6.30
2018-08-07T13:17:28.816Z,9.10
2018-08-07T13:18:28.514Z,4.30
2018-08-07T13:19:28.503Z,3.20
2018-08-07T13:20:28.495Z,3.90
2018-08-07T13:21:28.487Z,8.40
2018-08-07T13:22:28.478Z,6.20
2018-08-07T13:23:28.474Z,7.80
2018-08-07T13:24:28.462Z,10.10
2018-08-07T13:25:28.655Z,9.10
2018-08-07T13:26:28.453Z,14.40
2018-08-07T13:29:38.358Z,11.70
2018-08-07T13:30:35.122Z,11.30
2018-08-07T13:31:35.172Z,8.00
2018-08-07T13:32:34.918Z,8.50
2018-08-07T13:33:34.891Z,4.80
2018-08-07T13:34:34.877Z,12.00
2018-08-07T13:35:34.868Z,9.90
2018-08-07T13:36:34.857Z,9.10
2018-08-07T13:37:34.851Z,6.00
2018-08-07T13:38:34.839Z,7.50
2018-08-07T13:39:34.831Z,5.20
2018-08-07T13:40:34.822Z,7.20
2018-08-07T13:41:34.813Z,6.10
2018-08-07T13:42:34.803Z,5.00
2018-08-07T13:43:34.794Z,7.00
2018-08-07T13:44:34.788Z,4.50
2018-08-07T13:45:34.779Z,5.20
2018-08-07T13:46:34.769Z,7.10
2018-08-07T13:47:34.759Z,14.60
2018-08-07T13:48:34.752Z,14.90
2018-08-07T13:49:34.787Z,13.10
2018-08-07T13:50:34.735Z,7.50
2018-08-07T13:51:34.727Z,12.10
2018-08-07T13:52:34.719Z,6.10
2018-08-07T13:53:34.711Z,7.60
2018-08-07T13:54:34.702Z,6.80
2018-08-07T13:55:34.696Z,11.30
2018-08-07T13:56:34.689Z,3.90
2018-08-07T13:57:34.677Z,5.10
2018-08-07T13:58:34.668Z,5.80
2018-08-07T13:59:34.863Z,6.40
2018-08-07T14:00:34.855Z,3.90
2018-08-07T14:01:34.648Z,5.60
2018-08-07T14:02:34.636Z,6.90
2018-08-07T14:03:34.629Z,4.40
2018-08-07T14:04:34.629Z,8.00
2018-08-07T14:06:16.981Z,10.30
2018-08-07T14:07:16.973Z,8.70
2018-08-07T14:08:16.964Z,11.20
2018-08-07T14:09:17.004Z,16.90
2018-08-07T14:10:18.168Z,18.40
2018-08-07T14:11:16.939Z,15.40
2018-08-07T14:13:42.073Z,6.00
2018-08-07T14:15:23.831Z,10.10
2018-08-07T14:17:05.573Z,9.50
2018-08-07T14:18:05.564Z,12.20
2018-08-07T14:19:05.352Z,5.50
2018-08-07T14:20:06.790Z,4.10
2018-08-07T14:21:05.536Z,4.50
2018-08-07T14:22:05.525Z,6.10
2018-08-07T14:23:47.679Z,6.60
2018-08-07T14:24:47.669Z,6.10
2018-08-07T14:25:47.455Z,4.40
2018-08-07T15:06:50.878Z,6.20
2018-08-07T15:08:33.027Z,5.60
2018-08-07T15:09:32.813Z,7.70
2018-08-07T15:10:32.800Z,6.30
2018-08-07T15:14:21.638Z,5.00
2018-08-07T15:15:21.425Z,4.60
2018-08-07T15:16:21.413Z,7.90
2018-08-07T15:17:21.402Z,5.40
2018-08-07T15:18:21.394Z,3.30
2018-08-07T15:19:21.582Z,6.40
2018-08-07T15:20:21.421Z,3.20
2018-08-07T15:21:21.357Z,4.40
2018-08-07T15:23:03.720Z,6.50
2018-08-07T15:24:03.496Z,7.90
2018-08-07T15:25:03.489Z,4.00
2018-08-07T15:26:03.475Z,7.40
2018-08-07T15:27:03.462Z,4.80
2018-08-07T15:28:03.454Z,5.60
2018-08-07T15:29:03.446Z,3.90
2018-08-07T15:30:03.435Z,4.90
2018-08-07T15:31:03.418Z,6.10
2018-08-07T15:32:03.409Z,7.00
2018-08-07T15:33:03.395Z,5.20
2018-08-07T15:34:03.384Z,4.10
2018-08-07T15:35:03.374Z,6.00
2018-08-07T15:36:03.362Z,11.10
2018-08-07T15:37:03.355Z,4.30
2018-08-07T15:38:03.344Z,7.70
2018-08-07T15:39:03.333Z,4.80
2018-08-07T15:40:03.318Z,5.60
2018-08-07T15:41:03.312Z,4.90
2018-08-07T15:42:03.302Z,6.30
2018-08-07T15:43:03.488Z,7.40
2018-08-07T15:44:03.476Z,5.70
2018-08-07T15:45:03.265Z,7.30
2018-08-07T15:46:03.253Z,8.10
2018-08-07T15:47:03.255Z,6.20
2018-08-07T15:48:03.230Z,3.40
2018-08-07T15:49:03.220Z,4.30
2018-08-07T15:50:03.211Z,7.90
2018-08-07T15:51:03.201Z,11.30
2018-08-07T15:52:03.189Z,4.30
2018-08-07T15:53:03.257Z,6.40
2018-08-07T15:54:03.172Z,3.50
2018-08-07T15:55:03.157Z,5.20
2018-08-07T15:56:03.147Z,3.70
2018-08-07T15:57:03.134Z,4.80
2018-08-07T15:58:03.126Z,4.80
2018-08-07T15:59:03.113Z,3.00
2018-08-07T16:00:03.101Z,3.20
2018-08-07T16:01:03.095Z,3.60
2018-08-07T16:02:03.080Z,5.40
2018-08-07T16:04:27.596Z,3.10
2018-08-07T16:05:27.383Z,3.40
2018-08-07T16:06:27.377Z,8.10
2018-08-07T16:07:27.563Z,4.80
2018-08-07T16:08:27.348Z,6.80
2018-08-07T16:09:27.337Z,5.70
2018-08-07T16:10:27.325Z,5.70
2018-08-07T16:11:27.317Z,4.70
2018-08-07T16:13:09.465Z,3.90
2018-08-07T16:16:16.152Z,6.80
2018-08-07T16:17:15.928Z,6.80
2018-08-07T16:18:15.913Z,4.20
2018-08-07T16:19:16.104Z,5.10
2018-08-07T16:23:46.909Z,4.40
2018-08-07T16:24:46.886Z,6.30
2018-08-07T16:25:46.876Z,6.10
2018-08-07T16:26:46.862Z,7.10
2018-08-07T16:27:46.856Z,3.20
2018-08-07T16:28:46.835Z,3.60
2018-08-07T16:29:46.900Z,8.30
2018-08-07T16:30:46.615Z,4.70
2018-08-07T16:31:46.597Z,5.20
2018-08-07T16:32:46.589Z,3.50
2018-08-07T16:33:49.396Z,4.50
2018-08-07T16:34:46.762Z,3.70
2018-08-07T16:35:46.750Z,6.00
2018-08-07T16:36:46.535Z,8.00
2018-08-07T16:37:46.527Z,3.70
2018-08-07T16:38:46.510Z,7.40
2018-08-07T16:39:46.497Z,6.00
2018-08-07T16:40:46.690Z,4.20
2018-08-07T16:41:46.674Z,4.80
2018-08-07T16:42:46.473Z,5.60
2018-08-07T16:43:46.653Z,4.60
2018-08-07T16:44:46.635Z,4.10
2018-08-07T16:45:46.423Z,4.70
2018-08-07T16:46:46.412Z,5.10
2018-08-07T16:47:46.598Z,6.00
2018-08-07T16:48:46.584Z,5.20
2018-08-07T16:49:46.369Z,6.10
2018-08-07T16:50:46.358Z,4.00
2018-08-07T16:51:46.343Z,3.80
2018-08-07T16:52:46.334Z,5.70
2018-08-07T16:53:46.621Z,5.30
2018-08-07T16:54:46.303Z,4.80
2018-08-07T16:55:46.499Z,6.30
2018-08-07T16:56:46.277Z,5.40
2018-08-07T16:57:46.270Z,7.70
2018-08-07T16:58:46.263Z,4.40
2018-08-07T16:59:46.238Z,6.30
2018-08-07T17:00:46.424Z,3.70
2018-08-07T17:01:47.624Z,5.30
2018-08-07T17:02:46.409Z,5.00
2018-08-07T17:03:46.383Z,7.00
2018-08-07T17:04:46.370Z,4.10
2018-08-07T17:05:46.353Z,4.60
2018-08-07T17:06:46.138Z,5.20
2018-08-07T17:07:46.334Z,6.40
2018-08-07T17:09:28.484Z,4.90
2018-08-07T17:10:28.253Z,4.30
2018-08-07T17:11:28.462Z,5.40
2018-08-07T17:12:28.226Z,6.80
2018-08-07T17:13:28.421Z,5.00
2018-08-07T17:14:28.398Z,6.40
2018-08-07T17:15:28.205Z,6.40
2018-08-07T17:16:28.165Z,4.40
2018-08-07T17:17:28.150Z,5.90
2018-08-07T17:19:10.497Z,5.60
2018-08-07T17:20:10.282Z,5.80
2018-08-07T17:21:10.465Z,5.50
2018-08-07T17:22:10.315Z,6.20
2018-08-07T17:23:10.437Z,5.80
2018-08-07T17:24:10.424Z,8.90
2018-08-07T17:25:10.433Z,4.80
2018-08-07T17:26:10.389Z,7.20
2018-08-07T17:27:10.173Z,5.90
2018-08-07T17:28:10.361Z,4.30
2018-08-07T17:29:10.141Z,5.40
2018-08-07T17:30:10.329Z,7.00
2018-08-07T17:31:10.111Z,8.70
2018-08-07T17:32:10.096Z,6.70
2018-08-07T17:33:10.080Z,7.80
2018-08-07T17:34:10.063Z,6.00
2018-08-07T17:35:52.427Z,6.80
2018-08-07T17:36:52.395Z,6.20
2018-08-07T17:37:52.177Z,7.10
2018-08-07T17:38:52.169Z,5.40
2018-08-07T17:39:52.146Z,5.50
2018-08-07T17:40:52.131Z,7.70
2018-08-07T17:41:52.116Z,11.90
2018-08-07T17:42:52.301Z,8.10
2018-08-07T17:43:52.093Z,6.40
2018-08-07T17:44:52.107Z,7.00
2018-08-07T17:45:52.255Z,6.00
2018-08-07T17:46:52.241Z,9.00
2018-08-07T17:47:52.023Z,8.50
2018-08-07T17:48:52.209Z,5.90